createdAt,value
2018-07-02T00:01:21.431Z,48.80
2018-07-02T00:05:34.943Z,49.60
2018-07-02T00:09:38.300Z,48.90
2018-07-02T00:13:41.703Z,49.10
2018-07-02T00:17:45.044Z,49.20
2018-07-02T00:21:48.460Z,49.20
2018-07-02T00:25:51.819Z,49.00
2018-07-02T00:29:55.184Z,49.10
2018-07-02T00:33:58.527Z,49.20
2018-07-02T00:38:01.882Z,49.40
2018-07-02T00:42:05.291Z,50.50
2018-07-02T00:46:08.699Z,49.40
2018-07-02T00:50:12.051Z,49.30
2018-07-02T00:54:15.394Z,49.40
2018-07-02T00:58:18.752Z,51.70
2018-07-02T01:02:22.128Z,49.70
2018-07-02T01:06:25.554Z,50.20
2018-07-02T01:10:28.908Z,50.20
2018-07-02T01:14:32.243Z,50.40
2018-07-02T01:18:35.599Z,51.10
2018-07-02T01:22:38.970Z,50.10
2018-07-02T01:26:42.324Z,50.30
2018-07-02T01:30:45.696Z,50.40
2018-07-02T01:34:49.039Z,51.20
2018-07-02T01:38:52.387Z,50.60
2018-07-02T01:42:55.738Z,50.30
2018-07-02T01:46:59.088Z,51.10
2018-07-02T01:51:02.466Z,51.80
2018-07-02T01:55:05.827Z,52.60
2018-07-02T01:59:09.167Z,52.80
2018-07-02T02:03:12.600Z,55.80
2018-07-02T02:07:16.198Z,53.40
2018-07-02T02:11:19.555Z,53.40
2018-07-02T02:15:22.932Z,52.30
2018-07-02T02:19:26.263Z,51.30
2018-07-02T02:23:29.659Z,54.70
2018-07-02T02:31:42.755Z,54.00
2018-07-02T02:35:46.115Z,53.90
2018-07-02T02:39:49.469Z,53.20
2018-07-02T02:43:54.134Z,54.60
2018-07-02T02:47:57.497Z,54.30
2018-07-02T02:52:00.857Z,53.50
2018-07-02T02:56:04.986Z,52.80
2018-07-02T03:00:08.343Z,53.80
2018-07-02T03:04:11.715Z,54.10
2018-07-02T03:08:15.080Z,54.30
2018-07-02T03:12:18.451Z,55.20
2018-07-02T03:16:21.852Z,53.60
2018-07-02T03:20:25.217Z,53.60
2018-07-02T03:24:28.557Z,55.10
2018-07-02T03:28:31.913Z,53.90
2018-07-02T03:32:35.251Z,53.00
2018-07-02T03:36:38.598Z,55.90
2018-07-02T03:40:41.946Z,53.80
2018-07-02T03:44:45.295Z,56.40
2018-07-02T03:48:48.771Z,55.40
2018-07-02T03:52:52.146Z,54.80
2018-07-02T03:56:55.478Z,53.10
2018-07-02T04:00:58.871Z,54.30
2018-07-02T04:05:02.256Z,56.40
2018-07-02T04:09:09.066Z,54.70
2018-07-02T04:13:12.420Z,55.70
2018-07-02T04:17:15.892Z,54.00
2018-07-02T04:21:19.229Z,54.80
2018-07-02T04:25:22.583Z,54.50
2018-07-02T04:29:25.931Z,55.40
2018-07-02T04:33:29.280Z,53.90
2018-07-02T04:37:32.689Z,54.30
2018-07-02T04:41:36.182Z,56.10
2018-07-02T04:45:40.688Z,55.20
2018-07-02T04:53:48.316Z,55.00
2018-07-02T04:57:51.689Z,55.30
2018-07-02T05:01:55.090Z,54.20
2018-07-02T05:05:58.451Z,53.50
2018-07-02T05:10:04.764Z,54.30
2018-07-02T05:14:08.120Z,53.50
2018-07-02T05:18:11.483Z,54.80
2018-07-02T05:22:14.815Z,53.30
2018-07-02T05:26:18.182Z,54.40
2018-07-02T05:30:21.523Z,55.10
2018-07-02T05:34:24.858Z,60.20
2018-07-02T05:38:28.203Z,53.10
2018-07-02T05:42:31.544Z,56.60
2018-07-02T05:46:34.904Z,56.20
2018-07-02T05:50:39.397Z,54.30
2018-07-02T05:54:42.754Z,57.20
2018-07-02T05:58:46.115Z,53.60
2018-07-02T06:02:49.447Z,54.20
2018-07-02T06:06:52.777Z,54.50
2018-07-02T06:10:56.214Z,57.80
2018-07-02T06:14:59.592Z,54.90
2018-07-02T06:19:03.590Z,53.30
2018-07-02T06:23:06.999Z,55.10
2018-07-02T06:27:10.310Z,53.50
2018-07-02T06:31:13.821Z,53.50
2018-07-02T06:35:17.275Z,57.30
2018-07-02T06:39:20.636Z,53.90
2018-07-02T06:43:23.987Z,57.50
2018-07-02T06:47:27.333Z,56.10
2018-07-02T06:51:30.766Z,54.50
2018-07-02T06:55:34.183Z,54.50
2018-07-02T06:59:37.581Z,55.00
2018-07-02T07:03:40.923Z,60.30
2018-07-02T07:07:44.243Z,54.50
2018-07-02T07:11:49.602Z,55.10
2018-07-02T07:15:53.044Z,54.80
2018-07-02T07:19:56.407Z,54.80
2018-07-02T07:24:00.033Z,54.40
2018-07-02T07:28:03.384Z,54.50
2018-07-02T07:32:06.764Z,55.20
2018-07-02T07:36:10.164Z,52.90
2018-07-02T07:40:13.543Z,53.70
2018-07-02T07:44:16.892Z,54.30
2018-07-02T07:52:23.306Z,54.80
2018-07-02T07:56:26.789Z,54.00
2018-07-02T08:04:33.279Z,56.00
2018-07-02T08:08:36.670Z,53.30
2018-07-02T08:12:40.050Z,54.90
2018-07-02T08:16:43.423Z,54.00
2018-07-02T08:20:46.839Z,53.70
2018-07-02T08:24:50.223Z,53.30
2018-07-02T08:28:53.978Z,54.00
2018-07-02T08:32:57.545Z,53.90
2018-07-02T08:37:01.025Z,55.70
2018-07-02T08:41:04.407Z,53.80
2018-07-02T08:45:08.507Z,54.40
2018-07-02T08:49:11.891Z,53.30
2018-07-02T08:53:15.270Z,53.40
2018-07-02T08:57:18.603Z,52.90
2018-07-02T09:01:22.140Z,52.90
2018-07-02T09:05:25.505Z,53.10
2018-07-02T09:09:28.831Z,53.20
2018-07-02T09:13:32.163Z,52.80
2018-07-02T09:17:35.535Z,52.60
2018-07-02T09:21:38.968Z,51.90
2018-07-02T09:25:42.323Z,51.90
2018-07-02T09:29:45.683Z,52.20
2018-07-02T09:33:49.032Z,51.80
2018-07-02T09:37:52.362Z,51.60
2018-07-02T09:41:55.815Z,50.40
2018-07-02T09:45:59.134Z,50.50
2018-07-02T09:50:02.468Z,51.10
2018-07-02T09:54:05.815Z,49.00
2018-07-02T09:58:09.155Z,50.90
2018-07-02T10:02:12.518Z,50.90
2018-07-02T10:06:15.886Z,50.90
2018-07-02T10:10:19.220Z,50.20
2018-07-02T10:14:22.556Z,50.80
2018-07-02T10:18:25.925Z,50.10
2018-07-02T10:22:29.356Z,49.70
2018-07-02T10:26:32.698Z,50.20
2018-07-02T10:30:42.391Z,47.40
2018-07-02T10:34:45.706Z,49.50
2018-07-02T10:38:49.067Z,48.00
2018-07-02T10:42:52.447Z,49.00
2018-07-02T10:46:55.959Z,42.70
2018-07-02T10:50:59.420Z,44.60
2018-07-02T10:55:02.741Z,45.10
2018-07-02T10:59:06.100Z,46.00
2018-07-02T11:03:09.447Z,44.40
2018-07-02T11:07:12.778Z,45.90
2018-07-02T11:11:16.272Z,46.30
2018-07-02T11:15:19.574Z,44.30
2018-07-02T11:19:22.919Z,45.80
2018-07-02T11:23:26.278Z,44.60
2018-07-02T11:27:29.699Z,46.40
2018-07-02T11:31:33.055Z,46.00
2018-07-02T11:35:36.405Z,46.30
2018-07-02T11:39:39.771Z,45.10
2018-07-02T11:43:43.106Z,44.40
2018-07-02T11:47:46.890Z,43.50
2018-07-02T11:51:51.411Z,42.40
2018-07-02T11:55:54.743Z,40.30
2018-07-02T11:59:58.160Z,40.00
2018-07-02T12:04:01.565Z,44.50
2018-07-02T12:08:05.130Z,39.70
2018-07-02T12:12:08.510Z,42.90
2018-07-02T12:16:11.879Z,43.50
2018-07-02T12:24:18.328Z,41.10
2018-07-02T12:28:21.670Z,39.10
2018-07-02T12:32:25.027Z,43.10
2018-07-02T12:36:28.363Z,44.00
2018-07-02T12:40:31.717Z,42.60
2018-07-02T12:44:35.084Z,43.10
2018-07-02T12:48:38.430Z,43.10
2018-07-02T12:52:41.819Z,37.00
2018-07-02T12:56:45.156Z,39.70
2018-07-02T13:00:48.921Z,42.50
2018-07-02T13:04:52.448Z,42.10
2018-07-02T13:08:55.797Z,37.20
2018-07-02T13:12:59.133Z,40.80
2018-07-02T13:17:02.483Z,38.60
2018-07-02T13:21:05.835Z,34.80
2018-07-02T13:25:09.198Z,43.10
2018-07-02T13:29:12.541Z,40.20
2018-07-02T13:33:16.139Z,39.30
2018-07-02T13:37:19.282Z,42.20
2018-07-02T13:41:23.731Z,39.70
2018-07-02T13:45:27.094Z,42.60
2018-07-02T13:49:30.453Z,40.10
2018-07-02T13:53:33.844Z,42.20
2018-07-02T13:57:37.177Z,42.80
2018-07-02T14:01:40.523Z,41.90
2018-07-02T14:05:43.862Z,38.90
2018-07-02T14:09:47.222Z,38.80
2018-07-02T14:13:50.562Z,33.70
2018-07-02T14:17:53.896Z,37.10
2018-07-02T14:21:57.266Z,38.30
2018-07-02T14:26:00.616Z,41.20
2018-07-02T14:30:04.444Z,40.60
2018-07-02T14:34:07.769Z,35.20
2018-07-02T14:38:11.123Z,41.10
2018-07-02T14:42:14.475Z,42.80
2018-07-02T14:46:17.813Z,42.10
2018-07-02T14:50:21.297Z,41.30
2018-07-02T14:54:24.697Z,39.10
2018-07-02T15:02:31.077Z,38.00
2018-07-02T15:06:34.434Z,40.20
2018-07-02T15:14:41.051Z,41.20
2018-07-02T15:18:44.375Z,39.30
2018-07-02T15:22:47.716Z,39.30
2018-07-02T15:26:51.075Z,41.70
2018-07-02T15:30:54.424Z,35.40
2018-07-02T15:34:57.766Z,35.70
2018-07-02T15:39:01.147Z,41.20
2018-07-02T15:43:04.483Z,41.70
2018-07-02T15:47:08.121Z,39.00
2018-07-02T15:51:11.607Z,36.50
2018-07-02T15:55:14.999Z,41.10
2018-07-02T15:59:19.424Z,40.80
2018-07-02T16:03:23.152Z,37.40
2018-07-02T16:07:26.498Z,35.70
2018-07-02T16:11:30.009Z,39.00
2018-07-02T16:19:36.544Z,40.20
2018-07-02T16:23:40.010Z,39.90
2018-07-02T16:27:43.372Z,33.20
2018-07-02T16:31:46.805Z,40.90
2018-07-02T16:35:51.186Z,33.30
2018-07-02T16:39:54.643Z,35.40
2018-07-02T16:43:58.075Z,34.80
2018-07-02T16:48:01.675Z,36.90
2018-07-02T16:52:05.168Z,35.40
2018-07-02T16:56:08.594Z,34.50
2018-07-02T17:00:11.990Z,35.40
2018-07-02T17:04:15.361Z,35.30
2018-07-02T17:08:18.755Z,37.70
2018-07-02T17:12:22.183Z,36.10
2018-07-02T17:16:25.563Z,33.70
2018-07-02T17:20:28.923Z,35.50
2018-07-02T17:24:32.385Z,39.10
2018-07-02T17:28:35.717Z,33.60
2018-07-02T17:32:39.231Z,38.30
2018-07-02T17:36:42.633Z,39.00
2018-07-02T17:40:46.054Z,37.90
2018-07-02T17:44:49.399Z,34.90
2018-07-02T17:48:52.783Z,37.20
2018-07-02T17:52:56.143Z,36.30
2018-07-02T17:56:59.512Z,38.00
2018-07-02T18:01:02.884Z,37.30
2018-07-02T18:05:06.300Z,39.10
2018-07-02T18:09:10.895Z,36.60
2018-07-02T18:17:17.304Z,36.80
2018-07-02T18:21:20.759Z,36.20
2018-07-02T18:25:24.109Z,36.90
2018-07-02T18:29:27.422Z,38.70
2018-07-02T18:33:31.552Z,39.00
2018-07-02T18:37:34.915Z,38.40
2018-07-02T18:41:38.274Z,39.90
2018-07-02T18:45:41.607Z,40.10
2018-07-02T18:49:44.929Z,39.80
2018-07-02T18:53:48.291Z,40.20
2018-07-02T18:57:51.662Z,40.70
2018-07-02T19:01:54.983Z,40.80
2018-07-02T19:05:58.348Z,41.00
2018-07-02T19:10:01.654Z,41.50
2018-07-02T19:14:06.812Z,41.70
2018-07-02T19:18:10.195Z,42.40
2018-07-02T19:22:13.591Z,42.60
2018-07-02T19:26:17.033Z,43.10
2018-07-02T19:30:20.384Z,43.30
2018-07-02T19:34:23.801Z,43.10
2018-07-02T19:38:27.269Z,43.60
2018-07-02T19:42:30.659Z,43.50
2018-07-02T19:46:34.007Z,44.90
2018-07-02T19:50:37.398Z,44.30
2018-07-02T19:54:40.748Z,44.50
2018-07-02T19:58:44.118Z,44.60
2018-07-02T20:02:47.531Z,45.10
2018-07-02T20:06:50.940Z,45.60
2018-07-02T20:10:54.284Z,46.60
2018-07-02T20:14:57.599Z,46.10
2018-07-02T20:19:01.023Z,46.20
2018-07-02T20:23:04.346Z,46.60
2018-07-02T20:27:07.777Z,46.90
2018-07-02T20:31:11.076Z,47.00
2018-07-02T20:35:14.426Z,47.20
2018-07-02T20:39:17.877Z,47.70
2018-07-02T20:43:21.319Z,47.70
2018-07-02T20:47:24.835Z,48.00
2018-07-02T20:51:28.179Z,47.60
2018-07-02T20:55:31.528Z,47.80
2018-07-02T20:59:34.850Z,48.40
2018-07-02T21:03:39.029Z,49.10
2018-07-02T21:07:42.395Z,48.00
2018-07-02T21:11:45.719Z,48.70
2018-07-02T21:15:49.115Z,49.00
2018-07-02T21:19:52.465Z,48.20
2018-07-02T21:23:55.820Z,51.20
2018-07-02T21:27:59.138Z,49.80
2018-07-02T21:32:02.464Z,49.30
2018-07-02T21:40:09.050Z,49.30
2018-07-02T21:44:12.393Z,49.30
2018-07-02T21:48:16.440Z,49.90
2018-07-02T21:52:20.101Z,48.70
2018-07-02T21:56:23.459Z,49.90
2018-07-02T22:00:26.795Z,49.50
2018-07-02T22:04:30.145Z,50.60
2018-07-02T22:08:33.479Z,50.00
2018-07-02T22:12:41.074Z,49.80
2018-07-02T22:16:44.453Z,49.50
2018-07-02T22:20:47.806Z,50.80
2018-07-02T22:24:51.168Z,51.50
2018-07-02T22:28:54.637Z,49.80
2018-07-02T22:32:57.955Z,51.60
2018-07-02T22:37:01.280Z,50.60
2018-07-02T22:41:04.635Z,50.30
2018-07-02T22:45:07.974Z,51.50
2018-07-02T22:49:11.306Z,51.10
2018-07-02T22:53:14.651Z,52.20
2018-07-02T22:57:17.978Z,51.70
2018-07-02T23:01:21.305Z,52.30
2018-07-02T23:05:24.650Z,51.70
2018-07-02T23:09:27.983Z,52.90
2018-07-02T23:13:31.295Z,51.80
2018-07-02T23:17:34.598Z,54.20
2018-07-02T23:21:37.937Z,54.00
2018-07-02T23:25:41.259Z,54.30
2018-07-02T23:29:44.592Z,53.60
2018-07-02T23:33:47.920Z,51.50
2018-07-02T23:37:52.097Z,51.50
2018-07-02T23:41:57.107Z,53.00
2018-07-02T23:46:00.512Z,55.00
2018-07-02T23:50:03.895Z,56.10
2018-07-02T23:54:07.264Z,53.00
2018-07-02T23:58:10.583Z,52.70
